createdAt,value
2023-06-07T00:02:15.344Z,99919.09
2023-06-07T00:07:42.840Z,99923.16
2023-06-07T00:10:10.243Z,99926.50
2023-06-07T00:12:37.317Z,99918.88
2023-06-07T00:15:05.099Z,99917.25
2023-06-07T00:17:32.048Z,99911.94
2023-06-07T00:19:58.911Z,99921.44
2023-06-07T00:58:16.331Z,99920.50
2023-06-07T01:00:43.184Z,99916.44
2023-06-07T01:03:27.329Z,99921.44
2023-06-07T01:05:54.275Z,99918.28
2023-06-07T01:08:44.674Z,99913.91
2023-06-07T01:16:35.005Z,99912.97
2023-06-07T01:19:04.280Z,99909.84
2023-06-07T01:21:33.606Z,99905.22
2023-06-07T01:24:00.773Z,99903.50
2023-06-07T01:26:29.869Z,99893.91
2023-06-07T01:29:06.885Z,99896.59
2023-06-07T01:31:41.086Z,99889.19
2023-06-07T01:34:08.991Z,99896.59
2023-06-07T01:36:39.252Z,99899.12
2023-06-07T01:39:06.159Z,99893.44
2023-06-07T01:41:33.465Z,99888.50
2023-06-07T01:44:01.147Z,99890.78
2023-06-07T01:46:28.907Z,99880.75
2023-06-07T01:48:55.513Z,99889.88
2023-06-07T01:51:22.100Z,99883.78
2023-06-07T01:53:52.862Z,99893.59
2023-06-07T01:56:29.620Z,99885.38
2023-06-07T01:59:14.397Z,99885.72
2023-06-07T02:01:56.003Z,99882.72
2023-06-07T02:04:26.456Z,99883.97
2023-06-07T02:06:56.035Z,99882.84
2023-06-07T02:09:24.290Z,99883.06
2023-06-07T02:11:52.041Z,99882.38
2023-06-07T02:14:22.240Z,99878.00
2023-06-07T02:16:49.632Z,99881.09
2023-06-07T02:19:18.042Z,99883.53
2023-06-07T02:21:44.938Z,99883.88
2023-06-07T02:24:12.191Z,99882.62
2023-06-07T02:26:39.205Z,99884.56
2023-06-07T02:29:05.875Z,99881.22
2023-06-07T02:31:33.245Z,99878.91
2023-06-07T02:33:59.905Z,99879.03
2023-06-07T02:36:26.567Z,99881.00
2023-06-07T02:38:53.127Z,99883.28
2023-06-07T02:41:19.733Z,99873.81
2023-06-07T02:43:46.280Z,99876.59
2023-06-07T02:48:48.069Z,99879.81
2023-06-07T02:51:14.624Z,99874.88
2023-06-07T02:53:41.157Z,99872.91
2023-06-07T02:56:09.058Z,99876.38
2023-06-07T02:58:35.739Z,99880.78
2023-06-07T03:05:08.557Z,99876.97
2023-06-07T03:07:36.278Z,99880.19
2023-06-07T03:10:04.073Z,99879.94
2023-06-07T03:12:42.726Z,99890.81
2023-06-07T03:15:26.433Z,99893.13
2023-06-07T03:17:53.002Z,99897.16
2023-06-07T03:40:36.945Z,99898.41
2023-06-07T03:43:03.509Z,99895.31
2023-06-07T03:45:30.258Z,99897.50
2023-06-07T03:47:58.207Z,99902.34
2023-06-07T03:50:25.011Z,99901.69
2023-06-07T03:52:51.559Z,99902.72
2023-06-07T03:57:53.701Z,99904.09
2023-06-07T04:00:20.539Z,99904.88
2023-06-07T04:02:47.899Z,99900.19
2023-06-07T04:07:50.222Z,99896.13
2023-06-07T04:15:27.295Z,99898.44
2023-06-07T04:17:53.970Z,99899.12
2023-06-07T04:20:20.848Z,99906.53
2023-06-07T04:22:47.700Z,99914.25
2023-06-07T04:25:35.728Z,99911.47
2023-06-07T04:28:02.906Z,99911.16
2023-06-07T04:30:35.589Z,99913.12
2023-06-07T04:33:13.713Z,99912.88
2023-06-07T04:35:44.064Z,99910.09
2023-06-07T04:38:12.955Z,99913.31
2023-06-07T04:40:42.316Z,99909.41
2023-06-07T04:43:12.386Z,99915.66
2023-06-07T04:45:42.581Z,99903.19
2023-06-07T04:48:09.276Z,99912.75
2023-06-07T04:50:40.159Z,99908.94
2023-06-07T04:53:07.045Z,99914.72
2023-06-07T04:55:39.169Z,99912.41
2023-06-07T04:58:06.891Z,99913.09
2023-06-07T05:00:34.740Z,99914.72
2023-06-07T05:03:09.575Z,99908.72
2023-06-07T05:05:36.883Z,99910.91
2023-06-07T05:08:04.109Z,99912.19
2023-06-07T05:10:30.740Z,99917.94
2023-06-07T05:12:57.743Z,99920.72
2023-06-07T05:15:24.979Z,99916.56
2023-06-07T05:17:52.178Z,99917.94
2023-06-07T05:20:18.934Z,99918.41
2023-06-07T05:22:46.403Z,99916.81
2023-06-07T05:25:13.267Z,99913.31
2023-06-07T05:27:40.160Z,99918.97
2023-06-07T05:30:08.341Z,99914.03
2023-06-07T05:32:36.041Z,99913.91
2023-06-07T05:35:04.269Z,99920.03
2023-06-07T05:37:32.082Z,99917.72
2023-06-07T05:39:59.295Z,99926.28
2023-06-07T05:42:26.140Z,99929.50
2023-06-07T05:44:53.015Z,99928.69
2023-06-07T05:47:21.912Z,99923.28
2023-06-07T05:49:48.766Z,99921.31
2023-06-07T05:52:15.567Z,99920.25
2023-06-07T05:54:49.335Z,99913.22
2023-06-07T05:57:16.454Z,99927.22
2023-06-07T05:59:43.422Z,99923.50
2023-06-07T06:02:10.120Z,99926.84
2023-06-07T06:04:37.075Z,99932.75
2023-06-07T06:07:04.098Z,99933.56
2023-06-07T06:12:07.736Z,99935.50
2023-06-07T06:14:34.539Z,99931.69
2023-06-07T06:17:01.082Z,99934.56
2023-06-07T06:19:27.749Z,99934.56
2023-06-07T06:21:54.329Z,99934.94
2023-06-07T06:25:04.986Z,99930.31
2023-06-07T06:30:47.944Z,99935.06
2023-06-07T06:33:14.698Z,99938.97
2023-06-07T06:35:41.912Z,99940.63
2023-06-07T06:38:08.580Z,99945.91
2023-06-07T06:40:57.062Z,99943.62
2023-06-07T06:43:23.647Z,99945.25
2023-06-07T06:45:50.335Z,99941.88
2023-06-07T06:48:17.123Z,99945.47
2023-06-07T06:50:48.252Z,99944.75
2023-06-07T06:53:15.042Z,99946.03
2023-06-07T06:56:07.364Z,99952.06
2023-06-07T06:58:36.182Z,99946.94
2023-06-07T07:01:03.864Z,99946.69
2023-06-07T07:03:30.782Z,99950.34
2023-06-07T07:09:56.845Z,99948.13
2023-06-07T07:12:23.560Z,99954.22
2023-06-07T07:14:54.062Z,99952.47
2023-06-07T07:17:21.344Z,99958.09
2023-06-07T07:19:48.157Z,99949.94
2023-06-07T07:22:24.908Z,99956.25
2023-06-07T07:24:56.555Z,99955.50
2023-06-07T07:27:24.108Z,99959.88
2023-06-07T07:29:50.847Z,99959.69
2023-06-07T07:32:18.491Z,99960.69
2023-06-07T07:34:45.178Z,99959.75
2023-06-07T07:37:11.953Z,99958.97
2023-06-07T07:42:14.112Z,99967.94
2023-06-07T07:44:43.490Z,99969.19
2023-06-07T07:47:11.161Z,99961.41
2023-06-07T07:49:37.758Z,99956.66
2023-06-07T07:52:04.680Z,99965.63
2023-06-07T07:55:09.088Z,99957.81
2023-06-07T07:58:19.909Z,99963.63
2023-06-07T08:03:42.502Z,99970.84
2023-06-07T08:06:09.711Z,99972.75
2023-06-07T08:08:36.510Z,99970.69
2023-06-07T08:11:06.932Z,99973.13
2023-06-07T08:13:36.040Z,99973.78
2023-06-07T08:16:22.707Z,99975.25
2023-06-07T08:19:01.277Z,99979.00
2023-06-07T08:21:27.910Z,99975.12
2023-06-07T08:26:33.576Z,99984.56
2023-06-07T08:29:27.189Z,99978.00
2023-06-07T08:31:55.091Z,99979.59
2023-06-07T08:34:28.915Z,99963.31
2023-06-07T08:36:58.239Z,99971.31
2023-06-07T08:45:43.103Z,99970.66
2023-06-07T08:48:13.070Z,99967.94
2023-06-07T08:50:39.913Z,99969.47
2023-06-07T08:53:13.480Z,99960.94
2023-06-07T08:55:40.401Z,99959.94
2023-06-07T08:58:30.849Z,99958.53
2023-06-07T09:00:59.840Z,99958.41
2023-06-07T09:03:27.299Z,99953.22
2023-06-07T09:05:58.947Z,99951.31
2023-06-07T09:12:31.401Z,99962.09
2023-06-07T09:14:59.193Z,99958.72
2023-06-07T09:17:45.799Z,99958.19
2023-06-07T09:20:23.073Z,99959.50
2023-06-07T09:23:07.242Z,99959.12
2023-06-07T09:25:34.258Z,99959.69
2023-06-07T09:28:03.309Z,99966.00
2023-06-07T09:30:29.970Z,99960.66
2023-06-07T09:32:56.849Z,99960.63
2023-06-07T09:35:24.963Z,99967.34
2023-06-07T09:37:52.997Z,99972.34
2023-06-07T09:40:20.102Z,99971.31
2023-06-07T09:45:22.503Z,99968.97
2023-06-07T09:47:49.301Z,99967.94
2023-06-07T09:50:16.140Z,99972.78
2023-06-07T09:52:42.810Z,99968.41
2023-06-07T09:55:26.596Z,99974.84
2023-06-07T10:02:11.243Z,99964.75
2023-06-07T10:04:38.078Z,99957.00
2023-06-07T10:07:06.140Z,99956.03
2023-06-07T10:09:32.788Z,99950.00
2023-06-07T10:12:00.088Z,99948.56
2023-06-07T10:17:07.251Z,99951.12
2023-06-07T10:19:48.970Z,99951.66
2023-06-07T10:22:17.588Z,99950.94
2023-06-07T10:25:09.680Z,99944.06
2023-06-07T10:27:51.838Z,99939.28
2023-06-07T10:30:20.492Z,99947.66
2023-06-07T10:32:48.116Z,99940.28
2023-06-07T10:35:18.111Z,99949.25
2023-06-07T10:37:46.319Z,99943.50
2023-06-07T10:40:16.043Z,99943.31
2023-06-07T10:42:44.982Z,99945.84
2023-06-07T10:45:16.516Z,99939.34
2023-06-07T10:47:44.321Z,99938.88
2023-06-07T10:50:29.313Z,99938.25
2023-06-07T10:53:01.925Z,99942.75
2023-06-07T10:55:32.508Z,99939.41
2023-06-07T10:58:00.426Z,99933.97
2023-06-07T11:00:31.363Z,99936.12
2023-06-07T11:03:12.129Z,99937.63
2023-06-07T11:05:56.482Z,99937.09
2023-06-07T11:08:30.296Z,99938.63
2023-06-07T11:11:00.789Z,99934.47
2023-06-07T11:13:48.439Z,99931.72
2023-06-07T11:16:24.497Z,99931.72
2023-06-07T11:18:56.760Z,99937.44
2023-06-07T11:21:28.036Z,99934.63
2023-06-07T11:24:11.575Z,99940.09
2023-06-07T11:26:38.656Z,99940.19
2023-06-07T11:29:11.501Z,99937.34
2023-06-07T11:31:40.972Z,99939.00
2023-06-07T11:34:07.649Z,99940.37
2023-06-07T11:36:34.415Z,99935.59
2023-06-07T11:39:04.951Z,99932.66
2023-06-07T11:41:32.153Z,99934.53
2023-06-07T11:44:05.431Z,99934.56
2023-06-07T11:46:36.253Z,99930.03
2023-06-07T11:49:10.776Z,99934.63
2023-06-07T11:51:38.211Z,99926.84
2023-06-07T11:54:05.056Z,99924.47
2023-06-07T11:56:38.298Z,99925.72
2023-06-07T11:59:05.776Z,99916.13
2023-06-07T12:01:34.472Z,99914.31
2023-06-07T12:04:01.477Z,99915.19
2023-06-07T12:06:28.236Z,99910.16
2023-06-07T12:08:56.093Z,99919.81
2023-06-07T12:11:25.712Z,99910.31
2023-06-07T12:14:00.785Z,99910.84
2023-06-07T12:16:29.564Z,99902.97
2023-06-07T12:18:56.463Z,99894.56
2023-06-07T12:24:01.619Z,99883.47
2023-06-07T12:26:30.918Z,99875.31
2023-06-07T12:33:33.722Z,99869.25
2023-06-07T12:36:00.476Z,99860.97
2023-06-07T12:38:41.626Z,99864.41
2023-06-07T14:53:28.926Z,99812.34
2023-06-07T15:10:21.124Z,99792.94
2023-06-07T15:12:48.394Z,99783.66
2023-06-07T15:15:17.411Z,99783.31
2023-06-07T15:17:50.355Z,99772.22
2023-06-07T15:20:20.374Z,99775.69
2023-06-07T15:22:48.114Z,99773.81
2023-06-07T15:27:58.899Z,99774.38
2023-06-07T15:30:28.160Z,99765.97
2023-06-07T15:32:55.063Z,99780.19
2023-06-07T15:35:21.783Z,99775.62
2023-06-07T15:37:48.444Z,99778.81
2023-06-07T15:40:15.152Z,99781.34
2023-06-07T15:42:43.381Z,99789.00
2023-06-07T15:45:11.178Z,99791.00
2023-06-07T15:47:44.423Z,99791.38
2023-06-07T15:50:13.422Z,99783.19
2023-06-07T15:52:41.134Z,99786.66
2023-06-07T15:55:09.179Z,99785.06
2023-06-07T15:57:35.866Z,99784.22
2023-06-07T16:00:02.636Z,99790.72
2023-06-07T16:02:29.569Z,99796.28
2023-06-07T16:04:56.817Z,99795.00
2023-06-07T16:07:24.241Z,99793.69
2023-06-07T16:09:50.973Z,99793.25
2023-06-07T16:12:26.200Z,99794.63
2023-06-07T16:15:00.466Z,99790.56
2023-06-07T16:17:27.223Z,99791.34
2023-06-07T16:19:53.940Z,99786.25
2023-06-07T16:22:21.754Z,99791.31
2023-06-07T16:25:01.889Z,99795.72
2023-06-07T16:27:30.421Z,99790.41
2023-06-07T16:29:57.092Z,99798.28
2023-06-07T16:32:24.816Z,99795.16
2023-06-07T16:35:38.910Z,99797.00
2023-06-07T16:43:44.177Z,99804.72
2023-06-07T16:46:11.298Z,99795.28
2023-06-07T16:48:37.881Z,99790.56
2023-06-07T16:51:04.517Z,99802.28
2023-06-07T16:53:31.692Z,99806.25
2023-06-07T16:55:58.285Z,99807.00
2023-06-07T16:58:24.910Z,99798.88
2023-06-07T17:01:17.347Z,99800.88
2023-06-07T18:09:03.441Z,99811.91
2023-06-07T18:11:31.644Z,99807.44
2023-06-07T18:13:58.288Z,99820.19
2023-06-07T18:16:24.980Z,99821.78
2023-06-07T18:18:53.895Z,99814.84
2023-06-07T18:24:14.953Z,99827.22
2023-06-07T18:26:58.402Z,99836.34
2023-06-07T18:29:25.613Z,99833.44
2023-06-07T18:31:55.902Z,99828.88
2023-06-07T18:39:48.391Z,99841.00
2023-06-07T18:48:09.905Z,99827.38
2023-06-07T18:50:43.078Z,99842.47
2023-06-07T18:53:15.899Z,99846.03
2023-06-07T19:00:57.822Z,99859.75
2023-06-07T19:09:19.269Z,99872.47
2023-06-07T19:11:46.264Z,99875.72
2023-06-07T19:14:19.507Z,99873.44
2023-06-07T19:16:49.220Z,99876.25
2023-06-07T19:19:16.314Z,99877.75
2023-06-07T19:21:46.033Z,99877.41
2023-06-07T20:01:55.303Z,99889.56
2023-06-07T20:04:22.290Z,99888.34
2023-06-07T20:09:44.400Z,99883.06
2023-06-07T20:12:16.820Z,99876.63
2023-06-07T20:22:49.648Z,99866.38
2023-06-07T20:30:55.547Z,99867.44
2023-06-07T20:34:06.602Z,99871.41
2023-06-07T20:53:14.315Z,99873.66
2023-06-07T20:55:40.984Z,99876.44
2023-06-07T20:58:08.586Z,99884.66
2023-06-07T21:00:35.267Z,99877.75
2023-06-07T21:09:02.447Z,99868.47
2023-06-07T21:11:29.292Z,99871.09
2023-06-07T21:14:08.419Z,99868.94
2023-06-07T21:16:35.074Z,99873.25
2023-06-07T21:19:02.660Z,99875.34
2023-06-07T21:21:29.269Z,99874.66
2023-06-07T21:23:55.934Z,99874.13
2023-06-07T21:26:44.252Z,99872.78
2023-06-07T21:29:30.978Z,99876.84
2023-06-07T21:31:57.667Z,99872.16
2023-06-07T21:34:24.377Z,99873.72
2023-06-07T21:36:57.733Z,99871.31
2023-06-07T21:39:42.640Z,99861.31
2023-06-07T21:45:57.938Z,99862.59
2023-06-07T22:44:57.586Z,99862.16
2023-06-07T22:47:29.948Z,99867.50
2023-06-07T22:50:17.853Z,99855.72
2023-06-07T22:52:45.401Z,99858.06
2023-06-07T22:55:14.270Z,99852.00
2023-06-07T22:57:43.167Z,99854.41
2023-06-07T23:00:11.698Z,99853.78
2023-06-07T23:02:38.462Z,99855.44
2023-06-07T23:05:05.769Z,99852.88
2023-06-07T23:07:33.184Z,99852.28
2023-06-07T23:09:59.830Z,99856.09
2023-06-07T23:12:26.521Z,99854.59
2023-06-07T23:14:53.153Z,99857.38
2023-06-07T23:17:19.900Z,99845.25
2023-06-07T23:19:46.742Z,99848.34
2023-06-07T23:22:13.804Z,99850.91
2023-06-07T23:24:41.135Z,99846.78
2023-06-07T23:27:07.782Z,99846.63
2023-06-07T23:29:34.703Z,99841.75
2023-06-07T23:32:01.521Z,99837.78
2023-06-07T23:34:28.296Z,99837.03
2023-06-07T23:36:54.930Z,99829.03
2023-06-07T23:39:21.789Z,99837.03
2023-06-07T23:41:48.827Z,99834.37
2023-06-07T23:44:27.714Z,99833.81
2023-06-07T23:46:55.819Z,99838.31
2023-06-07T23:49:35.130Z,99840.41
2023-06-07T23:52:20.094Z,99836.25
2023-06-07T23:54:47.505Z,99835.44
2023-06-07T23:57:14.738Z,99830.84
2023-06-07T23:59:41.580Z,99832.13
